createdAt,value
2022-08-16T00:00:04.312Z,2.47
2022-08-16T00:02:33.598Z,2.40
2022-08-16T00:05:01.330Z,2.25
2022-08-16T00:07:29.895Z,2.53
2022-08-16T00:09:58.720Z,1.63
2022-08-16T00:12:30.841Z,3.63
2022-08-16T00:15:01.353Z,2.38
2022-08-16T00:17:28.356Z,2.47
2022-08-16T00:19:55.615Z,2.72
2022-08-16T00:22:25.117Z,2.45
2022-08-16T00:24:54.274Z,1.40
2022-08-16T00:27:22.427Z,1.85
2022-08-16T00:30:08.401Z,2.80
2022-08-16T00:32:38.531Z,2.92
2022-08-16T00:35:15.291Z,1.38
2022-08-16T00:37:58.809Z,2.10
2022-08-16T00:40:50.834Z,2.75
2022-08-16T00:43:42.549Z,2.33
2022-08-16T00:46:34.299Z,2.72
2022-08-16T00:51:32.370Z,1.65
2022-08-16T00:54:00.937Z,1.05
2022-08-16T00:56:58.208Z,1.58
2022-08-16T00:59:25.119Z,1.83
2022-08-16T01:01:53.472Z,1.33
2022-08-16T01:04:29.340Z,1.00
2022-08-16T01:07:02.100Z,1.30
2022-08-16T01:09:33.608Z,1.38
2022-08-16T01:12:03.534Z,2.75
2022-08-16T01:14:37.643Z,1.33
2022-08-16T01:17:08.523Z,1.25
2022-08-16T01:19:44.339Z,2.75
2022-08-16T01:25:18.861Z,1.40
2022-08-16T01:27:51.886Z,2.58
2022-08-16T01:30:39.845Z,2.88
2022-08-16T01:33:17.126Z,1.20
2022-08-16T01:35:53.953Z,1.55
2022-08-16T01:38:31.566Z,2.22
2022-08-16T01:41:11.793Z,1.50
2022-08-16T01:43:43.210Z,0.82
2022-08-16T01:46:39.195Z,2.75
2022-08-16T01:49:23.372Z,1.38
2022-08-16T01:52:00.253Z,2.13
2022-08-16T01:54:31.039Z,1.15
2022-08-16T01:56:59.925Z,2.05
2022-08-16T01:59:27.361Z,1.17
2022-08-16T02:01:59.746Z,0.70
2022-08-16T02:04:48.394Z,1.90
2022-08-16T02:07:18.503Z,1.08
2022-08-16T02:09:58.814Z,1.63
2022-08-16T02:12:50.883Z,1.75
2022-08-16T02:15:25.573Z,1.92
2022-08-16T02:17:56.907Z,1.27
2022-08-16T02:20:26.487Z,1.85
2022-08-16T02:22:56.580Z,0.75
2022-08-16T02:25:24.524Z,0.52
2022-08-16T02:27:52.031Z,1.67
2022-08-16T02:30:37.964Z,2.85
2022-08-16T02:33:11.959Z,1.30
2022-08-16T02:35:53.617Z,2.25
2022-08-16T02:38:22.525Z,1.48
2022-08-16T02:40:49.690Z,2.38
2022-08-16T02:43:16.838Z,1.10
2022-08-16T02:45:43.986Z,2.63
2022-08-16T02:48:29.226Z,1.35
2022-08-16T02:51:10.298Z,1.20
2022-08-16T02:53:43.181Z,2.65
2022-08-16T02:56:15.033Z,0.77
2022-08-16T02:58:46.435Z,2.22
2022-08-16T03:01:24.780Z,2.35
2022-08-16T03:04:39.164Z,1.42
2022-08-16T03:06:51.318Z,0.95
2022-08-16T03:09:24.426Z,2.88
2022-08-16T03:11:51.492Z,2.60
2022-08-16T03:14:21.210Z,3.47
2022-08-16T03:16:59.897Z,1.70
2022-08-16T03:22:19.312Z,1.55
2022-08-16T03:24:58.866Z,2.13
2022-08-16T03:27:30.837Z,1.85
2022-08-16T03:30:00.819Z,2.97
2022-08-16T03:32:28.993Z,0.88
2022-08-16T03:34:55.950Z,2.25
2022-08-16T03:37:23.820Z,1.40
2022-08-16T03:39:56.920Z,2.17
2022-08-16T03:42:30.174Z,1.73
2022-08-16T03:45:02.938Z,1.30
2022-08-16T03:47:34.345Z,0.45
2022-08-16T03:50:02.969Z,1.50
2022-08-16T03:52:31.513Z,2.95
2022-08-16T03:54:59.676Z,0.63
2022-08-16T03:57:31.798Z,0.50
2022-08-16T04:00:35.391Z,0.82
2022-08-16T04:03:08.516Z,1.02
2022-08-16T04:05:38.523Z,1.50
2022-08-16T04:08:23.131Z,1.65
2022-08-16T04:10:53.738Z,1.95
2022-08-16T04:14:01.097Z,1.38
2022-08-16T04:16:09.592Z,2.72
2022-08-16T04:18:54.516Z,1.55
2022-08-16T04:21:34.515Z,0.50
2022-08-16T04:24:02.966Z,1.10
2022-08-16T04:26:32.206Z,0.77
2022-08-16T04:29:16.951Z,2.30
2022-08-16T04:31:56.836Z,0.40
2022-08-16T04:34:31.361Z,1.25
2022-08-16T04:37:01.431Z,1.50
2022-08-16T04:39:36.699Z,1.90
2022-08-16T04:42:14.579Z,1.58
2022-08-16T04:44:53.736Z,1.02
2022-08-16T04:47:31.310Z,0.40
2022-08-16T04:49:59.167Z,0.57
2022-08-16T04:52:34.166Z,0.43
2022-08-16T04:55:15.192Z,1.48
2022-08-16T04:57:43.509Z,1.50
2022-08-16T05:00:30.659Z,0.30
2022-08-16T05:03:09.202Z,1.00
2022-08-16T05:05:45.335Z,2.95
2022-08-16T05:08:29.382Z,0.90
2022-08-16T05:11:05.687Z,0.98
2022-08-16T05:13:40.501Z,0.93
2022-08-16T05:16:19.664Z,2.05
2022-08-16T05:18:48.332Z,1.35
2022-08-16T05:21:15.376Z,0.65
2022-08-16T05:23:45.441Z,0.40
2022-08-16T05:26:20.476Z,0.38
2022-08-16T05:28:55.719Z,1.75
2022-08-16T05:31:29.590Z,0.90
2022-08-16T05:33:59.099Z,0.57
2022-08-16T05:36:35.679Z,0.20
2022-08-16T05:39:07.806Z,3.00
2022-08-16T05:41:44.776Z,0.57
2022-08-16T05:44:23.063Z,0.20
2022-08-16T05:46:54.533Z,0.40
2022-08-16T05:49:23.171Z,1.40
2022-08-16T05:51:50.920Z,0.30
2022-08-16T05:54:23.817Z,0.25
2022-08-16T05:56:53.885Z,0.05
2022-08-16T05:59:22.085Z,0.13
2022-08-16T06:01:52.502Z,0.85
2022-08-16T06:04:34.986Z,0.50
2022-08-16T06:07:06.317Z,0.75
2022-08-16T06:09:42.602Z,0.40
2022-08-16T06:12:26.724Z,1.33
2022-08-16T06:14:59.540Z,0.68
2022-08-16T06:17:42.285Z,0.38
2022-08-16T06:20:14.957Z,0.50
2022-08-16T06:22:58.456Z,0.40
2022-08-16T06:25:36.771Z,0.73
2022-08-16T06:28:10.264Z,0.40
2022-08-16T06:30:43.486Z,0.17
2022-08-16T06:33:22.185Z,1.30
2022-08-16T06:35:55.275Z,2.30
2022-08-16T06:38:32.514Z,0.03
2022-08-16T06:41:06.030Z,0.30
2022-08-16T06:43:34.934Z,0.47
2022-08-16T06:46:06.152Z,0.90
2022-08-16T06:48:37.784Z,3.10
2022-08-16T06:51:10.264Z,0.10
2022-08-16T06:53:37.403Z,0.60
2022-08-16T06:56:13.934Z,0.10
2022-08-16T06:58:45.468Z,1.10
2022-08-16T07:01:14.837Z,0.15
2022-08-16T07:03:54.640Z,1.38
2022-08-16T07:06:26.533Z,0.43
2022-08-16T07:08:55.339Z,0.77
2022-08-16T07:11:47.359Z,1.45
2022-08-16T07:14:26.375Z,2.40
2022-08-16T07:16:58.169Z,1.38
2022-08-16T07:20:01.304Z,0.65
2022-08-16T07:22:36.615Z,0.55
2022-08-16T07:25:00.254Z,5.97
2022-08-16T07:27:27.468Z,0.70
2022-08-16T07:29:55.549Z,0.77
2022-08-16T07:32:29.739Z,1.23
2022-08-16T07:34:58.885Z,3.38
2022-08-16T07:37:26.039Z,2.35
2022-08-16T07:39:54.584Z,0.17
2022-08-16T07:42:28.674Z,1.60
2022-08-16T07:45:10.079Z,0.60
2022-08-16T07:47:37.821Z,0.97
2022-08-16T07:50:07.584Z,2.35
2022-08-16T07:52:35.098Z,0.60
2022-08-16T07:55:07.906Z,1.10
2022-08-16T07:57:38.098Z,2.22
2022-08-16T08:00:22.009Z,1.58
2022-08-16T08:02:53.690Z,0.90
2022-08-16T08:05:25.533Z,0.93
2022-08-16T08:08:11.777Z,1.30
2022-08-16T08:10:51.297Z,0.20
2022-08-16T08:13:18.685Z,1.35
2022-08-16T08:15:52.683Z,0.55
2022-08-16T08:18:29.497Z,0.75
2022-08-16T08:20:59.369Z,0.70
2022-08-16T08:23:27.882Z,1.55
2022-08-16T08:25:55.926Z,0.43
2022-08-16T08:28:23.301Z,0.93
2022-08-16T08:31:01.596Z,1.73
2022-08-16T08:33:31.669Z,0.47
2022-08-16T08:36:01.486Z,1.05
2022-08-16T08:38:43.673Z,0.70
2022-08-16T08:41:18.284Z,0.60
2022-08-16T08:43:46.974Z,0.32
2022-08-16T08:46:21.296Z,1.48
2022-08-16T08:48:59.232Z,0.65
2022-08-16T08:51:35.758Z,3.72
2022-08-16T08:54:09.134Z,1.90
2022-08-16T08:56:45.510Z,0.57
2022-08-16T08:59:19.777Z,0.60
2022-08-16T09:01:57.207Z,4.18
2022-08-16T09:04:27.156Z,0.63
2022-08-16T09:06:54.781Z,0.20
2022-08-16T09:09:24.758Z,0.32
2022-08-16T09:12:04.246Z,0.30
2022-08-16T09:14:35.452Z,2.92
2022-08-16T09:17:11.759Z,0.20
2022-08-16T09:19:41.367Z,0.32
2022-08-16T09:22:19.623Z,1.27
2022-08-16T09:24:52.461Z,0.30
2022-08-16T09:27:23.413Z,1.75
2022-08-16T09:30:00.271Z,0.40
2022-08-16T09:32:31.158Z,3.30
2022-08-16T09:35:01.692Z,0.30
2022-08-16T09:37:36.658Z,1.75
2022-08-16T09:40:31.693Z,0.40
2022-08-16T09:42:58.655Z,1.15
2022-08-16T09:45:29.020Z,0.60
2022-08-16T09:47:58.406Z,0.65
2022-08-16T09:50:36.869Z,0.30
2022-08-16T09:53:14.769Z,1.05
2022-08-16T09:55:45.982Z,1.02
2022-08-16T09:58:41.462Z,1.58
2022-08-16T10:01:04.915Z,1.30
2022-08-16T10:03:31.931Z,0.90
2022-08-16T10:05:59.082Z,1.02
2022-08-16T10:08:27.471Z,1.80
2022-08-16T10:11:13.555Z,2.28
2022-08-16T10:13:43.867Z,2.20
2022-08-16T10:19:01.817Z,0.45
2022-08-16T10:21:32.055Z,0.40
2022-08-16T10:23:59.235Z,0.80
2022-08-16T10:27:19.943Z,1.48
2022-08-16T10:29:19.937Z,0.90
2022-08-16T10:31:53.243Z,1.00
2022-08-16T10:34:31.142Z,0.75
2022-08-16T10:37:00.688Z,1.35
2022-08-16T10:39:32.870Z,1.20
2022-08-16T10:42:09.254Z,1.27
2022-08-16T10:44:36.873Z,0.60
2022-08-16T10:47:04.632Z,0.65
2022-08-16T10:49:32.490Z,0.50
2022-08-16T10:52:02.803Z,0.68
2022-08-16T10:55:40.354Z,2.05
2022-08-16T10:57:32.995Z,1.95
2022-08-16T11:00:01.358Z,0.45
2022-08-16T11:02:58.780Z,1.00
2022-08-16T11:05:17.472Z,1.17
2022-08-16T11:07:52.359Z,1.67
2022-08-16T11:11:04.568Z,0.77
2022-08-16T11:19:12.019Z,1.30
2022-08-16T11:24:41.326Z,0.95
2022-08-16T11:27:35.515Z,0.90
2022-08-16T11:30:04.629Z,1.38
2022-08-16T11:32:37.400Z,1.30
2022-08-16T11:35:13.604Z,3.75
2022-08-16T11:38:46.760Z,1.60
2022-08-16T11:40:53.161Z,2.25
2022-08-16T11:43:26.402Z,2.20
2022-08-16T11:45:55.167Z,1.98
2022-08-16T11:48:25.719Z,2.15
2022-08-16T11:50:53.049Z,3.10
2022-08-16T11:53:21.979Z,1.80
2022-08-16T11:55:54.514Z,1.45
2022-08-16T11:58:26.491Z,1.42
2022-08-16T12:00:57.631Z,1.67
2022-08-16T12:03:31.511Z,1.88
2022-08-16T12:06:25.380Z,1.58
2022-08-16T12:09:00.841Z,3.30
2022-08-16T12:11:30.492Z,3.13
2022-08-16T12:14:00.156Z,3.30
2022-08-16T12:16:31.074Z,2.20
2022-08-16T12:19:05.758Z,1.38
2022-08-16T12:21:35.798Z,2.60
2022-08-16T12:24:21.942Z,1.98
2022-08-16T12:26:51.389Z,2.55
2022-08-16T12:29:19.685Z,2.00
2022-08-16T12:32:12.209Z,1.90
2022-08-16T12:34:36.907Z,3.72
2022-08-16T12:37:10.417Z,3.72
2022-08-16T12:39:38.748Z,1.98
2022-08-16T12:42:20.393Z,2.72
2022-08-16T12:44:49.139Z,1.02
2022-08-16T12:47:37.418Z,2.00
2022-08-16T12:50:10.487Z,4.15
2022-08-16T12:52:44.436Z,3.10
2022-08-16T12:55:20.818Z,6.13
2022-08-16T12:57:58.426Z,4.68
2022-08-16T13:00:33.091Z,2.85
2022-08-16T13:03:02.525Z,5.85
2022-08-16T13:08:03.761Z,1.73
2022-08-16T13:10:37.902Z,3.03
2022-08-16T13:13:08.893Z,2.73
2022-08-16T13:15:51.623Z,4.63
2022-08-16T13:18:33.437Z,2.67
2022-08-16T13:21:03.116Z,3.78
2022-08-16T13:23:30.349Z,6.47
2022-08-16T13:25:57.655Z,4.05
2022-08-16T13:28:24.960Z,3.65
2022-08-16T13:30:55.286Z,3.75
2022-08-16T13:33:29.853Z,1.85
2022-08-16T13:35:59.663Z,9.57
2022-08-16T13:38:30.018Z,4.22
2022-08-16T13:41:00.434Z,3.92
2022-08-16T13:43:32.700Z,2.97
2022-08-16T13:46:04.802Z,5.97
2022-08-16T13:48:43.394Z,2.22
2022-08-16T13:51:16.881Z,5.40
2022-08-16T13:53:59.734Z,6.45
2022-08-16T13:56:36.818Z,5.97
2022-08-16T13:59:16.558Z,4.72
2022-08-16T14:01:59.568Z,5.78
2022-08-16T14:04:28.709Z,6.57
2022-08-16T14:06:59.839Z,5.65
2022-08-16T14:09:28.538Z,7.40
2022-08-16T14:11:57.633Z,4.22
2022-08-16T14:14:29.308Z,3.47
2022-08-16T14:17:01.673Z,5.82
2022-08-16T14:19:29.896Z,4.43
2022-08-16T14:22:14.639Z,4.47
2022-08-16T14:24:46.950Z,4.88
2022-08-16T14:27:16.244Z,7.85
2022-08-16T14:29:45.122Z,3.80
2022-08-16T14:32:32.555Z,4.07
2022-08-16T14:35:03.169Z,4.05
2022-08-16T14:37:32.067Z,3.00
2022-08-16T14:39:59.776Z,7.25
2022-08-16T14:42:26.957Z,7.75
2022-08-16T14:44:54.176Z,12.13
2022-08-16T14:47:22.772Z,4.78
2022-08-16T14:49:52.269Z,3.80
2022-08-16T14:52:32.763Z,3.60
2022-08-16T14:55:09.845Z,7.20
2022-08-16T14:57:39.228Z,7.72
2022-08-16T15:00:11.566Z,7.35
2022-08-16T15:02:40.287Z,7.78
2022-08-16T15:05:09.303Z,8.57
2022-08-16T15:07:37.023Z,8.15
2022-08-16T15:10:21.506Z,9.98
2022-08-16T15:12:54.223Z,4.03
2022-08-16T15:15:25.373Z,8.25
2022-08-16T15:17:56.220Z,4.30
2022-08-16T15:20:26.882Z,3.85
2022-08-16T15:22:58.925Z,3.30
2022-08-16T15:25:30.228Z,4.72
2022-08-16T15:27:59.015Z,7.03
2022-08-16T15:30:58.089Z,5.28
2022-08-16T15:33:18.437Z,5.57
2022-08-16T15:35:47.493Z,9.95
2022-08-16T15:38:56.980Z,8.93
2022-08-16T15:41:03.271Z,5.30
2022-08-16T15:43:39.116Z,6.05
2022-08-16T15:46:34.685Z,7.38
2022-08-16T15:49:12.093Z,5.78
2022-08-16T15:51:39.694Z,4.18
2022-08-16T15:54:21.129Z,2.90
2022-08-16T15:56:56.147Z,5.38
2022-08-16T15:59:26.958Z,5.13
2022-08-16T16:01:55.951Z,4.75
2022-08-16T16:04:25.809Z,4.72
2022-08-16T16:06:54.874Z,4.35
2022-08-16T16:09:26.250Z,7.95
2022-08-16T16:12:34.195Z,4.80
2022-08-16T16:14:53.246Z,6.18
2022-08-16T16:17:20.240Z,5.40
2022-08-16T16:19:49.768Z,5.15
2022-08-16T16:22:21.776Z,8.65
2022-08-16T16:24:52.429Z,9.70
2022-08-16T16:27:19.309Z,5.95
2022-08-16T16:29:57.818Z,6.47
2022-08-16T16:32:34.335Z,9.40
2022-08-16T16:35:06.261Z,7.80
2022-08-16T16:37:33.546Z,11.40
2022-08-16T16:40:01.424Z,5.15
2022-08-16T16:42:31.457Z,5.57
2022-08-16T16:45:01.535Z,7.40
2022-08-16T16:47:41.433Z,3.13
2022-08-16T16:50:10.426Z,5.25
2022-08-16T16:52:43.827Z,5.47
2022-08-16T16:55:13.521Z,3.58
2022-08-16T16:58:00.694Z,3.20
2022-08-16T17:00:37.455Z,4.00
2022-08-16T17:03:06.246Z,5.40
2022-08-16T17:05:51.081Z,6.15
2022-08-16T17:08:26.101Z,4.55
2022-08-16T17:10:54.178Z,4.53
2022-08-16T17:13:25.803Z,3.38
2022-08-16T17:15:54.208Z,8.85
2022-08-16T17:19:14.397Z,5.97
2022-08-16T17:21:10.243Z,4.90
2022-08-16T17:23:59.062Z,8.48
2022-08-16T17:26:29.503Z,4.85
2022-08-16T17:29:02.172Z,5.40
2022-08-16T17:31:38.343Z,6.85
2022-08-16T17:34:29.017Z,5.43
2022-08-16T17:36:55.583Z,5.22
2022-08-16T17:39:29.326Z,6.20
2022-08-16T17:42:01.515Z,3.70
2022-08-16T17:44:28.863Z,7.82
2022-08-16T17:46:55.892Z,3.50
2022-08-16T17:49:23.281Z,3.63
2022-08-16T17:51:50.253Z,3.17
2022-08-16T17:54:29.877Z,6.47
2022-08-16T17:57:00.856Z,3.42
2022-08-16T17:59:29.291Z,4.22
2022-08-16T18:01:57.593Z,4.47
2022-08-16T18:04:49.056Z,8.02
2022-08-16T18:07:12.848Z,8.35
2022-08-16T18:09:40.771Z,7.63
2022-08-16T18:12:44.458Z,7.25
2022-08-16T18:15:07.906Z,5.00
2022-08-16T18:17:35.047Z,4.45
2022-08-16T18:20:02.890Z,11.95
2022-08-16T18:22:35.146Z,7.88
2022-08-16T18:25:02.555Z,5.95
2022-08-16T18:27:32.658Z,5.88
2022-08-16T18:29:59.998Z,8.18
2022-08-16T18:32:28.356Z,6.82
2022-08-16T18:34:55.338Z,3.60
2022-08-16T18:37:25.031Z,7.22
2022-08-16T18:39:52.253Z,6.85
2022-08-16T18:42:19.260Z,6.63
2022-08-16T18:44:46.428Z,5.72
2022-08-16T18:47:13.531Z,11.63
2022-08-16T18:49:40.874Z,7.82
2022-08-16T18:52:08.370Z,6.38
2022-08-16T18:55:02.248Z,8.00
2022-08-16T18:57:23.562Z,9.95
2022-08-16T18:59:50.568Z,6.57
2022-08-16T19:02:57.476Z,10.30
2022-08-16T19:05:25.846Z,11.40
2022-08-16T19:07:52.959Z,3.72
2022-08-16T19:10:20.139Z,7.70
2022-08-16T19:12:47.902Z,3.65
2022-08-16T19:15:20.344Z,13.13
2022-08-16T19:17:47.834Z,5.53
2022-08-16T19:20:17.846Z,8.63
2022-08-16T19:23:06.253Z,10.70
2022-08-16T19:25:47.130Z,9.98
2022-08-16T19:28:49.524Z,11.38
2022-08-16T19:31:35.423Z,6.32
2022-08-16T19:34:04.261Z,15.63
2022-08-16T19:36:36.726Z,7.82
2022-08-16T19:39:13.910Z,8.70
2022-08-16T19:41:52.084Z,10.07
2022-08-16T19:44:24.339Z,8.45
2022-08-16T19:46:51.793Z,8.93
2022-08-16T19:49:18.744Z,9.13
2022-08-16T19:51:47.200Z,8.07
2022-08-16T19:54:14.186Z,8.70
2022-08-16T19:56:41.136Z,6.35
2022-08-16T19:59:40.000Z,3.42
2022-08-16T20:01:55.045Z,6.53
2022-08-16T20:04:23.906Z,7.03
2022-08-16T20:06:53.048Z,6.15
2022-08-16T20:09:21.439Z,6.68
2022-08-16T20:11:49.392Z,5.45
2022-08-16T20:14:24.586Z,6.97
2022-08-16T20:16:54.127Z,5.53
2022-08-16T20:19:21.251Z,4.28
2022-08-16T20:21:48.148Z,9.82
2022-08-16T20:24:34.561Z,4.05
2022-08-16T20:27:02.898Z,5.15
2022-08-16T20:29:29.845Z,4.43
2022-08-16T20:31:56.931Z,8.02
2022-08-16T20:34:23.922Z,4.18
2022-08-16T20:36:50.816Z,9.65
2022-08-16T20:39:17.753Z,7.25
2022-08-16T20:41:44.752Z,7.47
2022-08-16T20:44:12.874Z,7.43
2022-08-16T20:46:40.268Z,9.52
2022-08-16T20:49:08.880Z,12.20
2022-08-16T20:51:46.533Z,6.82
2022-08-16T20:54:14.850Z,6.70
2022-08-16T20:56:41.929Z,4.70
2022-08-16T20:59:08.807Z,6.43
2022-08-16T21:01:46.647Z,5.80
2022-08-16T21:04:18.829Z,6.70
2022-08-16T21:06:53.910Z,7.00
2022-08-16T21:12:02.402Z,9.57
2022-08-16T21:14:33.538Z,8.50
2022-08-16T21:17:05.032Z,8.57
2022-08-16T21:19:32.980Z,9.90
2022-08-16T21:22:13.007Z,5.07
2022-08-16T21:24:40.065Z,5.38
2022-08-16T21:27:07.045Z,4.90
2022-08-16T21:29:43.020Z,7.57
2022-08-16T21:32:18.037Z,9.07
2022-08-16T21:34:45.221Z,13.25
2022-08-16T21:37:15.513Z,6.60
2022-08-16T21:39:43.157Z,9.75
2022-08-16T21:42:13.282Z,7.45
2022-08-16T21:44:40.862Z,4.07
2022-08-16T21:47:08.352Z,9.90
2022-08-16T21:49:36.896Z,7.22
2022-08-16T21:52:05.409Z,7.43
2022-08-16T21:54:32.811Z,6.15
2022-08-16T21:56:59.722Z,7.80
2022-08-16T21:59:26.645Z,6.53
2022-08-16T22:01:53.650Z,7.85
2022-08-16T22:04:37.113Z,7.28
2022-08-16T22:07:05.980Z,10.35
2022-08-16T22:09:33.128Z,13.80
2022-08-16T22:12:00.024Z,7.97
2022-08-16T22:14:26.960Z,5.38
2022-08-16T22:16:54.077Z,5.22
2022-08-16T22:19:23.512Z,9.35
2022-08-16T22:21:50.490Z,2.63
2022-08-16T22:24:17.507Z,7.63
2022-08-16T22:26:45.141Z,7.90
2022-08-16T22:29:14.495Z,4.15
2022-08-16T22:31:43.570Z,7.32
2022-08-16T22:34:10.593Z,8.20
2022-08-16T22:36:38.984Z,5.20
2022-08-16T22:39:09.315Z,10.90
2022-08-16T22:41:37.677Z,9.20
2022-08-16T22:44:06.233Z,7.88
2022-08-16T22:46:34.983Z,5.60
2022-08-16T22:49:03.293Z,10.68
2022-08-16T22:51:30.696Z,7.57
2022-08-16T22:53:57.888Z,6.60
2022-08-16T22:56:25.708Z,5.00
2022-08-16T22:58:52.833Z,4.03
2022-08-16T23:01:22.286Z,5.15
2022-08-16T23:03:49.349Z,7.75
2022-08-16T23:06:17.354Z,4.82
2022-08-16T23:08:44.532Z,4.68
2022-08-16T23:11:21.160Z,7.38
2022-08-16T23:13:54.640Z,15.25
2022-08-16T23:16:33.518Z,11.77
2022-08-16T23:19:09.996Z,3.22
2022-08-16T23:21:39.142Z,8.23
2022-08-16T23:24:07.700Z,6.15
2022-08-16T23:26:46.652Z,8.40
2022-08-16T23:29:25.403Z,5.95
2022-08-16T23:32:08.291Z,5.32
2022-08-16T23:34:35.294Z,5.05
2022-08-16T23:37:02.184Z,4.18
2022-08-16T23:39:29.514Z,7.85
2022-08-16T23:41:56.498Z,6.40
2022-08-16T23:44:57.030Z,5.28
2022-08-16T23:47:11.029Z,5.28
2022-08-16T23:49:59.217Z,4.70
2022-08-16T23:52:40.576Z,11.80
2022-08-16T23:55:12.766Z,7.03
2022-08-16T23:57:39.665Z,4.60
